Time;durP1;ratioP1;P1;durP2;ratioP2;P2;SDS_P1;SDS_P2;PMS_P1;PMS_P2;Temp;Humidity;BMP_temperature;BMP_pressure;BME280_temperature;BME280_humidity;BME280_pressure;Samples;Min_cycle;Max_cycle;Signal;HPM_P1;HPM_P2
2022/01/25 00:28:17;;;;;;;70.55;34.38;;;0.90;99.90;;;;;;4199219;28;20508;-83
2022/01/25 00:30:27;;;;;;;69.00;32.03;;;0.80;99.90;;;;;;4199916;28;20056;-83
2022/01/25 00:32:29;;;;;;;62.60;30.42;;;0.40;99.90;;;;;;4198562;28;20078;-79
2022/01/25 00:34:33;;;;;;;70.97;32.38;;;0.00;99.90;;;;;;4198814;28;20056;-79
2022/01/25 00:36:41;;;;;;;64.13;30.23;;;-0.20;99.90;;;;;;4194570;28;20094;-81
2022/01/25 00:38:47;;;;;;;66.15;30.77;;;-0.40;99.90;;;;;;4201989;28;20086;-78
2022/01/25 00:40:50;;;;;;;71.95;33.22;;;-0.50;99.90;;;;;;4202588;28;20047;-79
2022/01/25 00:42:52;;;;;;;64.05;31.02;;;-0.60;99.90;;;;;;4197633;28;20079;-79
2022/01/25 00:44:55;;;;;;;59.90;29.88;;;-0.70;99.90;;;;;;4196129;28;20123;-81
2022/01/25 00:47:01;;;;;;;60.85;30.17;;;-0.80;99.90;;;;;;4190625;28;20101;-81
2022/01/25 00:49:04;;;;;;;71.75;33.13;;;-0.90;99.90;;;;;;4191337;28;20055;-85
2022/01/25 00:53:56;;;;;;;69.93;33.45;;;-1.00;99.90;;;;;;4195731;28;20057;-82
2022/01/25 00:55:58;;;;;;;66.50;31.60;;;-1.00;99.90;;;;;;4197174;28;20083;-79
2022/01/25 00:58:01;;;;;;;73.18;32.00;;;-1.00;99.90;;;;;;4195741;28;20052;-80
2022/01/25 01:00:08;;;;;;;69.28;31.55;;;-1.10;99.90;;;;;;4197287;28;20059;-79
2022/01/25 01:02:15;;;;;;;73.80;33.33;;;-1.10;99.90;;;;;;4190414;28;20075;-82
2022/01/25 01:04:19;;;;;;;70.20;31.67;;;-1.10;99.90;;;;;;4197809;28;20604;-85
2022/01/25 01:06:22;;;;;;;75.13;31.65;;;-1.10;99.90;;;;;;4198487;28;20063;-81
2022/01/25 01:08:26;;;;;;;72.13;32.35;;;-1.20;99.90;;;;;;4198519;28;20044;-85
2022/01/25 01:10:31;;;;;;;75.68;31.10;;;-1.10;99.90;;;;;;4197295;28;20068;-80
2022/01/25 01:31:19;;;;;;;84.43;32.63;;;-0.40;99.90;;;;;;4195214;28;20055;-87
2022/01/25 01:42:55;;;;;;;85.72;35.30;;;1.20;99.90;;;;;;4194818;28;20088;-78
2022/01/25 01:44:38;;;;;;;85.85;33.50;;;1.20;99.90;;;;;;4184312;28;20052;-79
2022/01/25 01:46:58;;;;;;;88.85;33.58;;;1.10;99.90;;;;;;4182071;28;20627;-79
2022/01/25 01:49:03;;;;;;;86.13;35.10;;;0.90;99.90;;;;;;4181456;28;20057;-78
2022/01/25 01:51:14;;;;;;;81.55;33.75;;;0.80;99.90;;;;;;4181214;28;20052;-79
2022/01/25 01:53:16;;;;;;;88.55;35.45;;;0.80;99.90;;;;;;4184774;28;20051;-79
2022/01/25 01:55:20;;;;;;;88.10;36.35;;;0.80;99.90;;;;;;4204246;28;20051;-79
2022/01/25 01:57:21;;;;;;;93.38;37.15;;;0.80;99.90;;;;;;4215192;28;20052;-78
2022/01/25 01:59:24;;;;;;;85.35;36.88;;;0.80;99.90;;;;;;4210560;28;20056;-79
2022/01/25 02:01:27;;;;;;;81.22;35.35;;;0.80;99.90;;;;;;4227205;28;20039;-78
2022/01/25 02:03:30;;;;;;;77.10;31.88;;;0.80;99.90;;;;;;4216995;28;20548;-79
2022/01/25 02:05:33;;;;;;;76.65;31.75;;;0.60;99.90;;;;;;4215625;28;20074;-79
2022/01/25 02:07:35;;;;;;;70.75;30.67;;;0.30;99.90;;;;;;4206756;28;20064;-85
2022/01/25 02:09:37;;;;;;;73.28;31.02;;;0.20;99.90;;;;;;4200054;28;20045;-79
2022/01/25 02:11:39;;;;;;;77.07;31.25;;;0.00;99.90;;;;;;4197386;28;20052;-80
2022/01/25 02:13:42;;;;;;;88.65;35.67;;;-0.10;99.90;;;;;;4198300;28;20055;-79
2022/01/25 02:15:46;;;;;;;102.30;39.38;;;0.00;99.90;;;;;;4205435;28;20047;-79
2022/01/25 02:22:21;;;;;;;145.32;42.25;;;0.20;99.90;;;;;;4182166;28;20571;-79
2022/01/25 02:22:38;;;;;;;275.42;42.80;;;0.30;99.90;;;;;;4189259;28;20363;-83
2022/01/25 02:24:41;;;;;;;258.88;41.78;;;0.30;99.90;;;;;;4197985;28;20064;-79
2022/01/25 02:26:43;;;;;;;400.30;44.45;;;0.20;99.90;;;;;;4196468;28;20067;-79
2022/01/25 02:28:45;;;;;;;334.30;42.72;;;0.20;99.90;;;;;;4197181;28;20627;-79
2022/01/25 02:30:47;;;;;;;322.63;39.03;;;0.10;99.90;;;;;;4198628;28;20040;-79
2022/01/25 02:32:49;;;;;;;325.77;42.88;;;0.10;99.90;;;;;;4197249;28;20051;-78
2022/01/25 02:34:51;;;;;;;305.90;39.50;;;0.00;99.90;;;;;;4197304;28;20075;-81
2022/01/25 02:37:09;;;;;;;328.17;40.05;;;-0.10;99.90;;;;;;4196169;28;20056;-81
2022/01/25 02:39:11;;;;;;;305.98;43.03;;;-0.10;99.90;;;;;;4197301;28;20115;-80
2022/01/25 02:41:14;;;;;;;296.83;39.97;;;-0.10;99.90;;;;;;4194485;28;20073;-81
2022/01/25 02:43:18;;;;;;;345.95;41.63;;;-0.20;99.90;;;;;;4180623;28;20102;-84
2022/01/25 02:45:21;;;;;;;340.55;41.15;;;-0.20;99.90;;;;;;4181068;28;20068;-85
2022/01/25 02:49:43;;;;;;;270.63;41.53;;;-0.10;99.90;;;;;;4192265;28;20139;-81
2022/01/25 02:51:47;;;;;;;280.35;40.78;;;-0.20;99.90;;;;;;4189883;28;20086;-80
2022/01/25 02:53:50;;;;;;;284.40;44.55;;;-0.20;99.90;;;;;;4197068;28;20564;-79
2022/01/25 02:55:52;;;;;;;261.00;41.85;;;-0.20;99.90;;;;;;4194968;28;20041;-78
2022/01/25 02:57:54;;;;;;;286.00;42.70;;;-0.10;99.90;;;;;;4206655;28;20110;-81
2022/01/25 03:00:05;;;;;;;181.73;40.50;;;-0.10;99.90;;;;;;4196716;28;20488;-78
2022/01/25 03:02:07;;;;;;;257.65;42.50;;;-0.10;99.90;;;;;;4196626;28;20076;-79
2022/01/25 03:04:11;;;;;;;264.73;43.47;;;-0.10;99.90;;;;;;4196153;28;20071;-78
2022/01/25 03:06:15;;;;;;;261.58;43.20;;;-0.10;99.90;;;;;;4197056;28;20511;-79
2022/01/25 03:08:17;;;;;;;327.92;47.28;;;-0.10;99.90;;;;;;4197244;28;20068;-79
2022/01/25 03:10:19;;;;;;;246.02;41.70;;;-0.10;99.90;;;;;;4196699;28;20044;-79
2022/01/25 03:12:32;;;;;;;204.68;42.90;;;0.00;99.90;;;;;;4197177;28;20055;-80
2022/01/25 03:14:46;;;;;;;202.23;39.20;;;0.00;99.90;;;;;;4196877;28;20497;-80
2022/01/25 03:17:05;;;;;;;220.98;40.90;;;0.00;99.90;;;;;;4196765;28;20095;-79
2022/01/25 03:23:33;;;;;;;174.80;37.55;;;0.10;99.90;;;;;;4198025;28;20072;-78
2022/01/25 03:25:35;;;;;;;203.75;39.13;;;0.10;99.90;;;;;;4196471;28;20040;-78
2022/01/25 03:27:37;;;;;;;278.88;42.15;;;0.10;99.90;;;;;;4209745;28;20452;-78
2022/01/25 03:29:39;;;;;;;269.27;42.42;;;0.20;99.90;;;;;;4179701;28;20084;-80
2022/01/25 03:31:41;;;;;;;247.35;40.92;;;0.10;99.90;;;;;;4193103;28;20048;-81
2022/01/25 03:33:43;;;;;;;189.07;39.28;;;0.20;99.90;;;;;;4213217;28;20051;-81
2022/01/25 03:35:46;;;;;;;207.57;40.45;;;0.20;99.90;;;;;;4201572;28;20052;-78
2022/01/25 03:37:48;;;;;;;283.65;41.75;;;0.10;99.90;;;;;;4199093;28;20052;-79
2022/01/25 03:39:50;;;;;;;185.05;38.78;;;0.20;99.90;;;;;;4195871;28;20082;-80
2022/01/25 03:41:52;;;;;;;198.38;39.17;;;0.20;99.90;;;;;;4199671;28;20084;-79
2022/01/25 03:43:56;;;;;;;176.98;37.40;;;0.20;99.90;;;;;;4197440;28;20087;-80
2022/01/25 03:46:10;;;;;;;212.15;39.20;;;0.20;99.90;;;;;;4195584;28;20094;-81
2022/01/25 03:50:14;;;;;;;248.90;40.50;;;0.20;99.90;;;;;;4198824;28;20067;-86
2022/01/25 03:52:23;;;;;;;304.95;37.08;;;0.20;99.90;;;;;;4197070;28;20482;-78
2022/01/25 03:54:25;;;;;;;214.75;37.47;;;0.10;99.90;;;;;;4204127;28;20098;-79
2022/01/25 03:56:27;;;;;;;196.93;36.40;;;0.10;99.90;;;;;;4200181;28;20391;-84
2022/01/25 03:58:29;;;;;;;291.13;40.70;;;0.10;99.90;;;;;;4202938;28;20064;-83
2022/01/25 04:00:32;;;;;;;194.77;34.38;;;0.10;99.90;;;;;;4200638;28;20056;-79
2022/01/25 04:02:36;;;;;;;186.98;34.65;;;0.00;99.90;;;;;;4198715;28;20052;-82
2022/01/25 04:04:38;;;;;;;219.25;36.42;;;0.00;99.90;;;;;;4199446;28;20082;-80
2022/01/25 04:06:46;;;;;;;244.25;36.05;;;0.00;99.90;;;;;;4202056;28;20548;-78
2022/01/25 04:08:48;;;;;;;224.88;34.70;;;0.00;99.90;;;;;;4198901;28;20060;-83
2022/01/25 04:10:50;;;;;;;189.75;34.50;;;0.00;99.90;;;;;;4199343;28;20131;-79
2022/01/25 04:12:52;;;;;;;251.98;34.33;;;-0.10;99.90;;;;;;4198284;28;20078;-79
2022/01/25 04:14:54;;;;;;;225.05;31.25;;;-0.10;99.90;;;;;;4191857;28;20586;-79
2022/01/25 04:17:06;;;;;;;185.95;31.55;;;-0.20;99.90;;;;;;4211333;28;20090;-80
2022/01/25 04:25:56;;;;;;;172.77;30.92;;;-0.20;99.90;;;;;;4200887;28;20051;-81
2022/01/25 04:27:58;;;;;;;142.77;30.55;;;-0.20;99.90;;;;;;4206553;28;20048;-81
2022/01/25 04:30:01;;;;;;;142.52;30.80;;;-0.20;99.90;;;;;;4214838;28;20056;-80
2022/01/25 04:32:06;;;;;;;254.60;34.13;;;-0.20;99.90;;;;;;4198876;28;20494;-81
2022/01/25 04:36:49;;;;;;;162.18;32.25;;;-0.10;99.90;;;;;;4199562;28;19927;-79
2022/01/25 04:52:52;;;;;;;138.43;31.58;;;-0.20;99.90;;;;;;4198914;28;20150;-81
2022/01/25 05:01:10;;;;;;;143.85;33.05;;;-0.20;99.90;;;;;;4199621;28;20467;-84
2022/01/25 05:03:16;;;;;;;139.75;32.88;;;-0.20;99.90;;;;;;4214993;28;20044;-80
2022/01/25 05:05:28;;;;;;;115.63;32.28;;;-0.10;99.90;;;;;;4215692;28;20048;-81
2022/01/25 05:07:38;;;;;;;136.35;31.10;;;-0.10;99.90;;;;;;4196973;28;20049;-81
2022/01/25 05:09:43;;;;;;;105.68;30.60;;;-0.10;99.90;;;;;;4197067;28;20052;-82
2022/01/25 05:11:47;;;;;;;124.25;31.17;;;-0.10;99.90;;;;;;4198089;28;20522;-80
2022/01/25 05:14:10;;;;;;;122.38;30.85;;;-0.10;99.90;;;;;;4182624;28;20064;-81
2022/01/25 05:16:33;;;;;;;161.05;31.50;;;-0.10;99.90;;;;;;4180764;28;20111;-80
2022/01/25 05:18:40;;;;;;;106.63;28.40;;;-0.20;99.90;;;;;;4184584;28;20123;-82
2022/01/25 05:23:03;;;;;;;144.70;31.73;;;-0.20;99.90;;;;;;4198654;28;20047;-82
2022/01/25 05:25:06;;;;;;;204.20;32.70;;;-0.10;99.90;;;;;;4197025;28;20071;-80
2022/01/25 05:27:11;;;;;;;125.65;31.55;;;-0.10;99.90;;;;;;4193272;28;20044;-81
2022/01/25 05:29:13;;;;;;;165.20;33.83;;;-0.10;99.90;;;;;;4200121;28;20118;-82
2022/01/25 05:31:15;;;;;;;162.68;33.60;;;-0.10;99.90;;;;;;4211390;28;20075;-80
2022/01/25 05:33:17;;;;;;;142.93;31.77;;;-0.10;99.90;;;;;;4197583;28;20048;-82
2022/01/25 05:35:19;;;;;;;111.60;30.65;;;-0.10;99.90;;;;;;4197354;28;20048;-80
2022/01/25 05:37:21;;;;;;;204.80;31.00;;;0.00;99.90;;;;;;4196150;28;20080;-82
2022/01/25 05:39:30;;;;;;;121.80;30.15;;;-0.10;99.90;;;;;;4196973;28;20079;-79
2022/01/25 05:41:33;;;;;;;104.10;27.83;;;0.00;99.90;;;;;;4197282;28;20048;-81
2022/01/25 05:46:17;;;;;;;168.05;31.48;;;0.00;99.90;;;;;;4190329;28;20376;-82
2022/01/25 05:48:19;;;;;;;201.55;34.20;;;0.00;99.90;;;;;;4193580;28;20519;-79
2022/01/25 05:50:20;;;;;;;187.63;32.47;;;0.00;99.90;;;;;;4197275;28;20521;-82
2022/01/25 05:52:23;;;;;;;162.68;30.73;;;0.00;99.90;;;;;;4197309;28;20080;-80
2022/01/25 05:54:25;;;;;;;114.07;31.00;;;0.00;99.90;;;;;;4196219;28;20072;-82
2022/01/25 05:56:27;;;;;;;157.27;31.80;;;0.00;99.90;;;;;;4219527;28;20091;-79
2022/01/25 05:58:28;;;;;;;242.82;31.92;;;0.00;99.90;;;;;;4198793;28;20076;-81
2022/01/25 06:00:30;;;;;;;160.15;34.10;;;0.00;99.90;;;;;;4197408;28;20045;-81
2022/01/25 06:02:34;;;;;;;130.30;30.80;;;0.00;99.90;;;;;;4198259;28;20052;-80
2022/01/25 06:04:36;;;;;;;194.32;34.60;;;0.00;99.90;;;;;;4196348;28;20052;-79
2022/01/25 06:06:38;;;;;;;204.63;32.60;;;0.10;99.90;;;;;;4204376;28;20668;-82
2022/01/25 06:08:40;;;;;;;210.93;31.05;;;0.00;99.90;;;;;;4200399;28;20066;-83
2022/01/25 06:10:42;;;;;;;200.50;33.85;;;0.00;99.90;;;;;;4198205;28;20056;-83
2022/01/25 06:12:45;;;;;;;225.20;33.00;;;0.00;99.90;;;;;;4196082;28;20442;-81
2022/01/25 06:14:47;;;;;;;179.45;31.90;;;0.00;99.90;;;;;;4192887;28;20094;-82
2022/01/25 06:16:49;;;;;;;199.82;32.80;;;0.00;99.90;;;;;;4196452;28;20433;-82
2022/01/25 06:18:51;;;;;;;178.15;30.88;;;0.00;99.90;;;;;;4196590;28;20071;-79
2022/01/25 06:20:53;;;;;;;189.07;32.67;;;0.00;99.90;;;;;;4197011;28;20045;-80
2022/01/25 06:22:57;;;;;;;132.95;30.52;;;-0.10;99.90;;;;;;4196505;28;20122;-81
2022/01/25 06:24:59;;;;;;;165.50;31.77;;;0.00;99.90;;;;;;4196661;28;20068;-80
2022/01/25 06:27:01;;;;;;;114.72;29.20;;;0.00;99.90;;;;;;4197138;28;20044;-80
2022/01/25 06:29:03;;;;;;;220.20;32.35;;;0.00;99.90;;;;;;4196147;28;20067;-80
2022/01/25 06:31:05;;;;;;;180.88;31.42;;;0.00;99.90;;;;;;4198681;28;20493;-87
2022/01/25 06:33:08;;;;;;;178.77;30.58;;;0.00;99.90;;;;;;4199212;28;20072;-84
2022/01/25 06:35:10;;;;;;;158.40;31.08;;;0.00;99.90;;;;;;4196767;28;20155;-81
2022/01/25 06:37:13;;;;;;;161.23;29.75;;;0.00;99.90;;;;;;4196499;28;20076;-80
2022/01/25 06:39:15;;;;;;;202.57;31.25;;;-0.10;99.90;;;;;;4196757;28;20124;-80
2022/01/25 06:41:18;;;;;;;215.93;32.28;;;-0.10;99.90;;;;;;4197544;28;20056;-82
2022/01/25 06:43:20;;;;;;;162.88;28.80;;;-0.10;99.90;;;;;;4198731;28;20048;-81
2022/01/25 06:45:24;;;;;;;203.70;31.20;;;-0.10;99.90;;;;;;4213314;28;20078;-79
2022/01/25 06:47:26;;;;;;;160.38;29.33;;;0.00;99.90;;;;;;4213075;28;20112;-80
2022/01/25 06:49:28;;;;;;;235.30;30.83;;;0.00;99.90;;;;;;4212989;28;20137;-80
2022/01/25 06:51:43;;;;;;;182.07;30.10;;;-0.10;99.90;;;;;;4199635;28;20084;-83
2022/01/25 06:53:45;;;;;;;142.32;28.40;;;0.00;99.90;;;;;;4197572;28;20048;-80
2022/01/25 06:55:47;;;;;;;136.23;29.58;;;0.00;99.90;;;;;;4195487;28;20356;-80
2022/01/25 06:57:49;;;;;;;130.80;30.83;;;0.00;99.90;;;;;;4179688;28;20111;-78
2022/01/25 06:59:51;;;;;;;156.68;30.30;;;0.00;99.90;;;;;;4180947;28;20083;-81
2022/01/25 07:01:53;;;;;;;95.30;29.65;;;0.00;99.90;;;;;;4180676;28;20081;-80
2022/01/25 07:03:55;;;;;;;164.10;30.90;;;0.00;99.90;;;;;;4189412;28;20075;-80
2022/01/25 07:05:57;;;;;;;146.85;31.13;;;0.00;99.90;;;;;;4206280;28;20528;-81
2022/01/25 07:07:59;;;;;;;143.95;31.83;;;0.00;99.90;;;;;;4214163;28;20490;-81
2022/01/25 07:10:02;;;;;;;120.65;32.03;;;0.00;99.90;;;;;;4191021;28;20049;-80
2022/01/25 07:12:04;;;;;;;189.80;32.78;;;0.10;99.90;;;;;;4179868;28;20041;-80
2022/01/25 07:14:07;;;;;;;116.82;29.80;;;0.10;99.90;;;;;;4192961;28;20051;-81
2022/01/25 07:16:09;;;;;;;145.38;30.25;;;0.10;99.90;;;;;;4185515;28;20055;-80
2022/01/25 07:18:12;;;;;;;309.52;32.55;;;0.10;99.90;;;;;;4192320;28;20080;-80
2022/01/25 07:20:14;;;;;;;261.90;33.47;;;0.00;99.90;;;;;;4190066;28;20056;-80
2022/01/25 07:22:17;;;;;;;363.00;35.53;;;0.00;99.90;;;;;;4190681;28;20072;-80
2022/01/25 07:24:19;;;;;;;304.83;36.22;;;0.00;99.90;;;;;;4193453;28;20441;-81
2022/01/25 07:26:21;;;;;;;246.65;31.33;;;0.00;99.90;;;;;;4189991;28;20053;-81
2022/01/25 07:28:23;;;;;;;223.45;34.20;;;0.00;99.90;;;;;;4195538;28;20075;-79
2022/01/25 07:30:25;;;;;;;238.55;39.45;;;0.00;99.90;;;;;;4194250;28;20083;-80
2022/01/25 07:32:27;;;;;;;149.65;30.27;;;0.00;99.90;;;;;;4200330;28;20064;-81
2022/01/25 07:34:29;;;;;;;243.77;32.40;;;0.00;99.90;;;;;;4188553;28;20044;-80
2022/01/25 07:36:36;;;;;;;209.07;32.58;;;0.00;99.90;;;;;;4195653;28;20575;-80
2022/01/25 07:38:55;;;;;;;223.32;30.45;;;0.00;99.90;;;;;;4193276;28;20048;-80
2022/01/25 07:41:00;;;;;;;279.33;31.30;;;0.00;99.90;;;;;;4197207;28;20123;-79
2022/01/25 07:43:04;;;;;;;288.75;34.05;;;0.00;99.90;;;;;;4191215;28;20044;-80
2022/01/25 07:45:14;;;;;;;255.00;29.48;;;-0.10;99.90;;;;;;4192943;28;20160;-82
2022/01/25 07:47:19;;;;;;;207.05;29.50;;;-0.10;99.90;;;;;;4196024;28;20178;-81
2022/01/25 07:49:30;;;;;;;199.27;28.93;;;-0.10;99.90;;;;;;4190937;28;20084;-81
2022/01/25 07:51:35;;;;;;;284.48;30.38;;;-0.10;99.90;;;;;;4195709;28;20295;-79
2022/01/25 07:53:38;;;;;;;253.25;30.85;;;-0.10;99.90;;;;;;4198799;28;20040;-81
2022/01/25 07:55:40;;;;;;;263.25;30.30;;;-0.10;99.90;;;;;;4190473;28;20053;-79
2022/01/25 07:57:42;;;;;;;297.80;33.28;;;-0.10;99.90;;;;;;4198689;28;20052;-82
2022/01/25 07:59:44;;;;;;;176.10;31.15;;;-0.10;99.90;;;;;;4191986;28;20052;-80
2022/01/25 08:01:46;;;;;;;191.55;30.02;;;-0.10;99.90;;;;;;4189843;28;20060;-82
2022/01/25 08:03:56;;;;;;;133.07;29.38;;;-0.10;99.90;;;;;;4189797;28;20465;-82
2022/01/25 08:06:20;;;;;;;175.18;30.00;;;0.00;99.90;;;;;;4193967;28;20107;-80
2022/01/25 08:08:24;;;;;;;185.82;28.65;;;0.00;99.90;;;;;;4190216;28;20080;-80
2022/01/25 08:10:28;;;;;;;160.48;28.45;;;0.00;99.90;;;;;;4195756;28;20045;-79
2022/01/25 08:12:43;;;;;;;140.87;27.73;;;0.00;99.90;;;;;;4190887;28;20172;-80
2022/01/25 08:15:03;;;;;;;273.13;30.65;;;0.00;99.90;;;;;;4186384;28;20283;-79
2022/01/25 08:17:21;;;;;;;156.65;29.52;;;0.00;99.90;;;;;;4191948;28;20583;-81
2022/01/25 08:19:25;;;;;;;138.80;28.23;;;0.00;99.90;;;;;;4191916;28;20059;-81
2022/01/25 08:21:46;;;;;;;88.18;28.00;;;0.00;99.90;;;;;;4188670;28;20139;-79
2022/01/25 08:24:04;;;;;;;165.60;28.60;;;0.00;99.90;;;;;;4191755;28;20130;-80
2022/01/25 08:26:20;;;;;;;129.52;27.80;;;0.10;99.90;;;;;;4158541;28;20054;-85
2022/01/25 08:28:51;;;;;;;155.35;28.88;;;0.00;99.90;;;;;;4101542;29;20098;-90
2022/01/25 08:31:26;;;;;;;119.82;30.40;;;0.10;99.90;;;;;;4055841;29;20052;-81
2022/01/25 08:33:41;;;;;;;;;;;0.10;99.90;;;;;;4035163;29;20044;-79
2022/01/25 08:35:49;;;;;;;155.18;26.02;;;0.00;99.90;;;;;;4048273;29;19923;-80
2022/01/25 08:38:08;;;;;;;207.02;28.00;;;0.00;99.90;;;;;;4044383;29;20107;-79
2022/01/25 08:40:21;;;;;;;114.50;26.65;;;0.00;99.90;;;;;;4066410;29;20530;-79
2022/01/25 08:42:36;;;;;;;192.13;26.80;;;0.00;99.90;;;;;;4060472;29;20057;-81
2022/01/25 08:44:44;;;;;;;143.70;27.95;;;0.00;99.90;;;;;;4060022;29;20060;-79
2022/01/25 08:46:48;;;;;;;135.80;28.73;;;0.00;99.90;;;;;;4068238;29;20048;-80
2022/01/25 08:48:57;;;;;;;133.85;29.23;;;0.00;99.90;;;;;;4065071;29;20047;-79
2022/01/25 08:51:16;;;;;;;113.45;27.15;;;0.00;99.90;;;;;;4022969;29;20088;-81
2022/01/25 08:53:35;;;;;;;86.05;26.25;;;0.10;99.90;;;;;;3970454;29;20088;-81
2022/01/25 08:55:50;;;;;;;94.15;26.50;;;0.10;99.90;;;;;;3961928;29;20083;-79
2022/01/25 08:58:05;;;;;;;96.70;28.30;;;0.20;99.90;;;;;;3963115;29;20080;-81
2022/01/25 09:00:10;;;;;;;104.38;30.23;;;0.20;99.90;;;;;;3971468;29;20058;-79
2022/01/25 09:02:12;;;;;;;93.05;29.48;;;0.20;99.90;;;;;;3954542;29;20059;-81
2022/01/25 09:04:14;;;;;;;141.15;32.88;;;0.30;99.90;;;;;;4025962;29;20065;-80
2022/01/25 09:06:18;;;;;;;112.78;29.67;;;0.30;99.90;;;;;;4050146;29;20462;-82
2022/01/25 09:08:22;;;;;;;102.18;28.08;;;0.30;99.90;;;;;;4049307;29;20068;-80
2022/01/25 09:10:30;;;;;;;90.45;27.48;;;0.30;99.90;;;;;;4043703;29;20119;-81
2022/01/25 09:12:32;;;;;;;97.80;26.45;;;0.40;99.90;;;;;;4047239;29;20052;-81
2022/01/25 09:14:34;;;;;;;81.88;28.13;;;0.40;99.90;;;;;;4047267;29;20514;-79
2022/01/25 09:16:37;;;;;;;88.80;28.90;;;0.40;99.90;;;;;;4042387;29;20080;-81
2022/01/25 09:18:39;;;;;;;79.80;27.10;;;0.40;99.90;;;;;;4089064;28;20106;-85
2022/01/25 09:20:41;;;;;;;65.63;26.50;;;0.50;99.90;;;;;;4115850;28;20149;-81
2022/01/25 09:22:44;;;;;;;130.00;25.35;;;0.50;99.90;;;;;;4113589;28;20323;-81
2022/01/25 09:25:02;;;;;;;115.35;26.10;;;0.40;99.90;;;;;;4111507;28;20471;-82
2022/01/25 09:27:07;;;;;;;141.65;26.05;;;0.40;99.90;;;;;;4103391;28;20060;-79
2022/01/25 09:29:10;;;;;;;173.48;29.63;;;0.40;99.90;;;;;;4177099;28;20048;-84
2022/01/25 09:31:12;;;;;;;119.50;26.70;;;0.50;99.90;;;;;;4198162;28;20044;-81
2022/01/25 09:33:15;;;;;;;95.13;25.23;;;0.50;99.90;;;;;;4192639;28;20045;-83
2022/01/25 09:35:17;;;;;;;90.30;24.98;;;0.50;99.90;;;;;;4197570;28;20118;-80
2022/01/25 09:37:19;;;;;;;98.68;27.23;;;0.50;99.90;;;;;;4188034;28;20099;-79
2022/01/25 09:39:21;;;;;;;88.57;27.90;;;0.50;99.90;;;;;;4189352;28;20081;-79
2022/01/25 09:41:23;;;;;;;64.53;24.58;;;0.50;99.90;;;;;;4188992;28;20131;-82
2022/01/25 09:43:27;;;;;;;97.65;25.13;;;0.50;99.90;;;;;;4197335;28;20132;-80
2022/01/25 09:45:30;;;;;;;83.68;26.40;;;0.50;99.90;;;;;;4194212;28;20052;-79
2022/01/25 09:47:32;;;;;;;112.70;25.73;;;0.50;99.90;;;;;;4181141;28;20102;-79
2022/01/25 09:49:34;;;;;;;119.95;23.77;;;0.50;99.90;;;;;;4195343;28;20090;-80
2022/01/25 09:51:40;;;;;;;91.70;25.70;;;0.60;99.90;;;;;;4205126;28;20051;-80
2022/01/25 09:53:42;;;;;;;117.75;24.65;;;0.60;99.90;;;;;;4196535;28;20141;-82
2022/01/25 09:55:45;;;;;;;56.47;22.63;;;0.60;99.90;;;;;;4196715;28;20116;-80
2022/01/25 09:57:47;;;;;;;94.78;25.13;;;0.70;99.90;;;;;;4196831;28;20485;-81
2022/01/25 09:59:50;;;;;;;89.97;23.23;;;0.70;99.90;;;;;;4196793;28;20068;-81
2022/01/25 10:01:53;;;;;;;87.60;26.08;;;0.70;99.90;;;;;;4196783;28;20044;-80
2022/01/25 10:03:56;;;;;;;85.93;26.50;;;0.70;99.90;;;;;;4193141;28;20056;-78
2022/01/25 10:06:01;;;;;;;78.70;25.50;;;0.70;99.90;;;;;;4211106;28;20076;-81
2022/01/25 10:08:15;;;;;;;101.72;25.45;;;0.80;99.90;;;;;;4188659;28;20109;-79
2022/01/25 10:10:17;;;;;;;54.83;23.02;;;0.70;99.90;;;;;;4189859;28;20407;-78
2022/01/25 10:12:20;;;;;;;69.50;24.33;;;0.80;99.90;;;;;;4180849;28;20123;-79
2022/01/25 10:14:25;;;;;;;104.63;25.20;;;0.90;99.90;;;;;;4180916;28;20414;-79
2022/01/25 10:16:36;;;;;;;61.13;18.10;;;0.80;99.90;;;;;;4190183;28;20047;-79
2022/01/25 10:18:42;;;;;;;58.17;23.85;;;0.80;99.90;;;;;;4197794;28;20433;-81
2022/01/25 10:20:47;;;;;;;63.25;23.88;;;0.90;99.90;;;;;;4197154;28;20051;-78
2022/01/25 10:22:50;;;;;;;58.78;23.83;;;0.90;99.90;;;;;;4196091;28;20084;-78
2022/01/25 10:24:52;;;;;;;71.50;27.13;;;1.00;99.90;;;;;;4180254;28;20083;-78
2022/01/25 10:26:57;;;;;;;67.00;23.67;;;1.10;99.90;;;;;;4180793;28;20132;-78
2022/01/25 10:28:59;;;;;;;66.18;29.17;;;1.00;99.90;;;;;;4180562;28;20099;-79
2022/01/25 10:31:06;;;;;;;101.18;23.75;;;1.00;99.90;;;;;;4185747;28;20098;-80
2022/01/25 10:33:18;;;;;;;55.20;24.17;;;1.00;99.90;;;;;;4194982;28;20132;-80
2022/01/25 10:35:20;;;;;;;67.20;23.73;;;1.00;99.90;;;;;;4207686;28;20052;-77
2022/01/25 10:37:24;;;;;;;80.28;21.63;;;1.00;99.90;;;;;;4202975;28;20064;-80
2022/01/25 10:39:28;;;;;;;50.97;22.30;;;1.00;99.90;;;;;;4196691;28;20497;-79
2022/01/25 10:41:31;;;;;;;124.13;21.40;;;1.00;99.90;;;;;;4209580;28;20137;-78
2022/01/25 10:43:36;;;;;;;90.82;19.48;;;1.00;99.90;;;;;;4215916;28;20094;-82
2022/01/25 10:45:38;;;;;;;70.18;20.23;;;0.90;99.90;;;;;;4217487;28;20067;-81
2022/01/25 10:47:45;;;;;;;88.40;29.67;;;0.90;99.90;;;;;;4208669;28;20048;-79
2022/01/25 10:49:50;;;;;;;54.85;20.52;;;0.90;99.90;;;;;;4196981;28;20480;-80
2022/01/25 10:51:52;;;;;;;61.80;21.50;;;1.00;99.90;;;;;;4195903;28;20048;-80
2022/01/25 10:54:23;;;;;;;48.55;20.30;;;1.00;99.90;;;;;;4207051;28;20051;-80
2022/01/25 10:56:25;;;;;;;50.08;21.42;;;1.10;99.90;;;;;;4213645;28;20047;-81
2022/01/25 10:58:29;;;;;;;46.55;21.08;;;1.10;99.90;;;;;;4211769;28;20083;-80
2022/01/25 11:00:34;;;;;;;52.42;20.38;;;1.20;99.90;;;;;;4196525;28;20631;-79
2022/01/25 11:02:51;;;;;;;63.75;20.40;;;1.20;99.90;;;;;;4184968;28;20082;-80
2022/01/25 11:05:08;;;;;;;44.63;20.83;;;1.20;99.90;;;;;;4193240;28;20094;-79
2022/01/25 11:07:11;;;;;;;49.78;20.38;;;1.30;99.90;;;;;;4185142;28;20057;-80
2022/01/25 11:09:16;;;;;;;37.95;19.45;;;1.30;99.90;;;;;;4204807;28;20079;-80
2022/01/25 11:11:33;;;;;;;45.72;19.13;;;1.20;99.90;;;;;;4213782;28;20044;-79
2022/01/25 11:13:37;;;;;;;41.53;19.10;;;1.20;99.90;;;;;;4206437;28;20139;-79
2022/01/25 11:15:40;;;;;;;47.75;20.10;;;1.30;99.90;;;;;;4196006;28;20052;-79
2022/01/25 11:17:42;;;;;;;60.08;19.40;;;1.30;99.90;;;;;;4193710;28;20132;-79
2022/01/25 11:19:44;;;;;;;39.53;20.00;;;1.30;99.90;;;;;;4191576;28;20135;-80
2022/01/25 11:21:47;;;;;;;41.15;18.25;;;1.30;99.90;;;;;;4180862;28;20053;-82
2022/01/25 11:23:51;;;;;;;41.17;19.65;;;1.40;99.90;;;;;;4187037;28;20049;-78
2022/01/25 11:25:55;;;;;;;47.70;18.02;;;1.30;99.90;;;;;;4202802;28;20047;-78
2022/01/25 11:27:58;;;;;;;39.80;18.08;;;1.20;99.90;;;;;;4197783;28;20485;-80
2022/01/25 11:30:05;;;;;;;39.10;18.27;;;1.30;99.90;;;;;;4196728;28;20498;-78
2022/01/25 11:32:18;;;;;;;39.42;18.83;;;1.30;99.90;;;;;;4195743;28;20041;-82
2022/01/25 11:34:26;;;;;;;42.58;17.52;;;1.20;99.90;;;;;;4196949;28;20124;-77
2022/01/25 11:36:31;;;;;;;48.63;17.83;;;1.20;99.90;;;;;;4197030;28;20122;-79
2022/01/25 11:38:40;;;;;;;37.92;17.65;;;1.20;99.90;;;;;;4197180;28;20124;-78
2022/01/25 11:40:46;;;;;;;37.08;17.58;;;1.30;99.90;;;;;;4195819;28;20075;-79
2022/01/25 11:42:50;;;;;;;33.47;16.58;;;1.30;99.90;;;;;;4205348;28;20181;-81
2022/01/25 11:44:55;;;;;;;37.90;18.73;;;1.30;99.90;;;;;;4215712;28;20051;-80
2022/01/25 11:47:10;;;;;;;34.65;17.70;;;1.30;99.90;;;;;;4214752;28;20044;-82
2022/01/25 11:49:19;;;;;;;39.08;17.48;;;1.40;99.90;;;;;;4204033;28;20041;-79
2022/01/25 11:51:21;;;;;;;44.83;18.63;;;1.30;99.90;;;;;;4213033;28;20631;-79
2022/01/25 11:53:24;;;;;;;34.20;16.85;;;1.30;99.90;;;;;;4180594;28;20140;-79
2022/01/25 11:55:31;;;;;;;36.08;18.40;;;1.30;99.90;;;;;;4188939;28;20444;-81
2022/01/25 11:57:47;;;;;;;43.10;18.38;;;1.40;99.90;;;;;;4193998;28;20055;-79
2022/01/25 11:59:58;;;;;;;35.78;18.15;;;1.50;99.90;;;;;;4195212;28;20091;-78
2022/01/25 12:02:00;;;;;;;39.13;18.45;;;1.50;99.90;;;;;;4179351;28;20091;-79
2022/01/25 12:04:08;;;;;;;36.70;17.75;;;1.50;99.90;;;;;;4179700;28;20045;-79
2022/01/25 12:06:18;;;;;;;33.55;17.08;;;1.60;99.90;;;;;;4188652;28;20488;-79
2022/01/25 12:08:28;;;;;;;31.80;16.50;;;1.60;99.90;;;;;;4193996;28;20127;-80
2022/01/25 12:10:37;;;;;;;38.45;18.00;;;1.60;99.90;;;;;;4196642;28;20061;-78
2022/01/25 12:12:40;;;;;;;41.35;19.85;;;1.70;99.90;;;;;;4195462;28;20041;-79
2022/01/25 12:14:48;;;;;;;36.22;17.83;;;1.80;99.90;;;;;;4196254;28;20072;-78
2022/01/25 12:17:02;;;;;;;31.50;17.60;;;1.70;99.90;;;;;;4184682;28;20049;-81
2022/01/25 12:19:05;;;;;;;34.10;16.67;;;1.80;99.90;;;;;;4184758;28;20132;-80
2022/01/25 12:21:07;;;;;;;35.63;16.35;;;1.70;99.90;;;;;;4197613;28;20113;-81